^^
Datos históricos de la estación: Murcia-Puente Tocinos
Diario Informe para Mayo 29, 2021 Unidades:  Métrico    Ingés   Ambas
Diario Semanal Mensual Anual
  Máxima: Mínima: Promedio:
Temperatura: 28.3 °C 11.3 °C 18.3 °C
Punto de rocio: 10.3 °C 4.4 °C 7.1 °C
Humedad: 75% 22.2% 52%
Velocidad viento: 11.9km/h 2.2km/h 6.6km/h
Racha viento: 20.9km/h - -
Viento- - SSO
Presión: 1020.4 hPa 1015.3 hPa -
Precipitación: 0.0 mm    
 
 
Tabla de datos para Mayo 29, 2021
Hora Temperatura Punto de rocio Presión Viento Velocidad viento Racha viento Humedad Intensidad lluvia(por hora) Nubes
00:04 16.6 °C 10.2 °C 1020.3 hPa SSO 7.6 km/h 13.7 km/h 66% 0.0 mm
00:09 16.5 °C 10.2 °C 1020.3 hPa SSO 8.5 km/h 14.8 km/h 66.2% 0.0 mm
00:14 16.5 °C 10.3 °C 1020.2 hPa SO 8.7 km/h 14.5 km/h 67% 0.0 mm
00:19 16.4 °C 10.3 °C 1020.2 hPa SO 8.7 km/h 11.1 km/h 67% 0.0 mm
00:24 16.3 °C 10.2 °C 1020.2 hPa SO 8.7 km/h 11.3 km/h 67% 0.0 mm
00:29 16.3 °C 10.2 °C 1020.2 hPa SO 7.2 km/h 11.3 km/h 67% 0.0 mm
00:34 16.2 °C 10 °C 1020.2 hPa SO 6.9 km/h 11.3 km/h 67% 0.0 mm
00:39 16 °C 9.9 °C 1020.3 hPa SO 6.9 km/h 13.7 km/h 67% 0.0 mm
00:44 15.9 °C 10 °C 1020.3 hPa SO 6.9 km/h 13 km/h 67.9% 0.0 mm
00:49 15.8 °C 9.9 °C 1020.3 hPa SO 8.4 km/h 13.7 km/h 68% 0.0 mm
00:54 15.9 °C 10 °C 1020.3 hPa SO 8.7 km/h 14.5 km/h 68% 0.0 mm
00:59 15.9 °C 9.9 °C 1020.3 hPa SSO 8.7 km/h 13 km/h 67.4% 0.0 mm
01:04 16 °C 9.8 °C 1020.3 hPa SSO 8.7 km/h 12.9 km/h 66.9% 0.0 mm
01:09 16.2 °C 9.7 °C 1020.3 hPa SSO 8.4 km/h 11.3 km/h 65.9% 0.0 mm
01:14 16.2 °C 9.6 °C 1020.3 hPa SSO 8.4 km/h 11.3 km/h 65% 0.0 mm
01:19 16.3 °C 9.6 °C 1020.3 hPa Sur 7.2 km/h 11.1 km/h 64.4% 0.0 mm
01:24 16.3 °C 9.5 °C 1020.3 hPa Sur 6.9 km/h 11.3 km/h 64% 0.0 mm
01:29 16.2 °C 9.6 °C 1020.2 hPa Sur 6.9 km/h 11.1 km/h 64.6% 0.0 mm
01:34 16.1 °C 9.5 °C 1020.2 hPa Sur 6.9 km/h 12.2 km/h 65% 0.0 mm
01:39 15.9 °C 9.4 °C 1020.2 hPa Sur 7.5 km/h 13 km/h 65% 0.0 mm
01:44 15.9 °C 9.3 °C 1020.0 hPa Sur 7.6 km/h 12.9 km/h 65% 0.0 mm
01:49 15.9 °C 9.3 °C 1020.0 hPa Sur 8.2 km/h 11.3 km/h 65% 0.0 mm
01:54 15.9 °C 9.3 °C 1020.1 hPa SSO 8.4 km/h 11.3 km/h 65% 0.0 mm
01:59 15.9 °C 9.3 °C 1020.1 hPa SSO 6.8 km/h 9.7 km/h 65% 0.0 mm
02:04 15.8 °C 9.3 °C 1020.1 hPa Sur 6.5 km/h 9.3 km/h 65% 0.0 mm
02:09 15.8 °C 9.2 °C 1020.1 hPa Sur 5.2 km/h 9.7 km/h 65% 0.0 mm
02:14 15.8 °C 9.2 °C 1019.9 hPa Sur 5 km/h 8 km/h 65% 0.0 mm
02:19 15.7 °C 9.1 °C 1019.9 hPa SSE 4.1 km/h 7.6 km/h 65% 0.0 mm
02:24 15.6 °C 9.2 °C 1019.9 hPa SSE 3.9 km/h 8.4 km/h 65.9% 0.0 mm
02:29 15.3 °C 9.2 °C 1019.9 hPa SSE 4.8 km/h 8 km/h 66.7% 0.0 mm
02:34 15.1 °C 9.1 °C 1019.9 hPa SE 5 km/h 8 km/h 67.5% 0.0 mm
02:39 14.8 °C 9.1 °C 1019.9 hPa SSE 4.7 km/h 8 km/h 68.9% 0.0 mm
02:44 14.5 °C 9.1 °C 1019.8 hPa Sur 4.7 km/h 8 km/h 70% 0.0 mm
02:49 14.4 °C 9.2 °C 1019.8 hPa SO 4.9 km/h 8 km/h 71% 0.0 mm
02:54 14.4 °C 9.2 °C 1019.8 hPa SO 5 km/h 8.4 km/h 71% 0.0 mm
02:59 14.4 °C 9.1 °C 1019.8 hPa Sur 5 km/h 10 km/h 70.3% 0.0 mm
03:04 14.5 °C 9.1 °C 1019.8 hPa Sur 5 km/h 9.7 km/h 70% 0.0 mm
03:09 14.5 °C 9.1 °C 1019.9 hPa Sur 6.6 km/h 10 km/h 70% 0.0 mm
03:14 14.5 °C 9.1 °C 1019.9 hPa SSE 6.9 km/h 10 km/h 70% 0.0 mm
03:19 14.4 °C 9 °C 1019.9 hPa SSE 6.5 km/h 10.3 km/h 70% 0.0 mm
03:24 14.2 °C 9 °C 1019.9 hPa SSE 6.5 km/h 11.9 km/h 71% 0.0 mm
03:29 14.1 °C 9 °C 1019.7 hPa SSE 7.4 km/h 11.3 km/h 71.3% 0.0 mm
03:34 14 °C 9.1 °C 1019.7 hPa SSE 7.6 km/h 11.3 km/h 72% 0.0 mm
03:39 13.7 °C 8.9 °C 1019.7 hPa SE 7.6 km/h 13 km/h 72.5% 0.0 mm
03:44 13.5 °C 8.8 °C 1019.7 hPa SSE 7.6 km/h 12.9 km/h 73.7% 0.0 mm
03:49 13.3 °C 8.9 °C 1019.7 hPa Sur 7.6 km/h 11.3 km/h 74.5% 0.0 mm
03:54 13.3 °C 8.9 °C 1019.7 hPa Sur 7.6 km/h 8.4 km/h 75% 0.0 mm
03:59 13.3 °C 9 °C 1019.6 hPa Sur 6.1 km/h 8 km/h 74.9% 0.0 mm
04:04 13.4 °C 8.8 °C 1019.6 hPa SSE 5.8 km/h 11.1 km/h 74% 0.0 mm
04:09 13.4 °C 8.8 °C 1019.6 hPa Sur 6.3 km/h 11.3 km/h 74% 0.0 mm
04:14 13.4 °C 8.9 °C 1019.4 hPa SSO 6.5 km/h 11.3 km/h 74% 0.0 mm
04:19 13.5 °C 8.9 °C 1019.4 hPa SO 6.5 km/h 11.3 km/h 73.5% 0.0 mm
04:24 13.6 °C 8.8 °C 1019.4 hPa SO 6.5 km/h 11.1 km/h 73% 0.0 mm
04:29 13.6 °C 8.7 °C 1019.3 hPa SO 6.8 km/h 9.3 km/h 72.4% 0.0 mm
04:34 13.6 °C 8.7 °C 1019.3 hPa OSO 6.9 km/h 9.7 km/h 72% 0.0 mm
04:39 13.5 °C 8.6 °C 1019.3 hPa SO 6 km/h 8 km/h 72% 0.0 mm
04:44 13.4 °C 8.5 °C 1019.3 hPa SSO 5.8 km/h 7.4 km/h 72% 0.0 mm
04:49 13.6 °C 8.5 °C 1019.3 hPa SSO 4.9 km/h 11.1 km/h 71.3% 0.0 mm
04:54 13.7 °C 8.4 °C 1019.3 hPa SO 4.7 km/h 11.3 km/h 70.1% 0.0 mm
04:59 13.8 °C 8.4 °C 1019.1 hPa Sur 6.1 km/h 9.7 km/h 69.7% 0.0 mm
05:04 13.8 °C 8.2 °C 1019.1 hPa SSE 6.5 km/h 9.7 km/h 69% 0.0 mm
05:09 13.7 °C 8.2 °C 1019.1 hPa SE 5.9 km/h 9.7 km/h 69.4% 0.0 mm
05:14 13.5 °C 8.1 °C 1019.0 hPa SE 5.8 km/h 10 km/h 70.1% 0.0 mm
05:19 13.2 °C 8.1 °C 1019.0 hPa SSE 6.3 km/h 11.1 km/h 71.4% 0.0 mm
05:24 12.9 °C 8 °C 1019.0 hPa Sur 6.4 km/h 10.3 km/h 72% 0.0 mm
05:29 12.9 °C 8 °C 1018.9 hPa SSO 5.9 km/h 7.4 km/h 72.2% 0.0 mm
05:34 12.8 °C 8.1 °C 1018.9 hPa Oeste 5.8 km/h 8 km/h 73% 0.0 mm
05:39 12.8 °C 8 °C 1019.1 hPa Oeste 3.7 km/h 9.3 km/h 72.8% 0.0 mm
05:44 12.8 °C 7.8 °C 1019.1 hPa SSO 3.2 km/h 10 km/h 71.6% 0.0 mm
05:49 12.9 °C 7.8 °C 1019.1 hPa SSE 4.7 km/h 9.7 km/h 70.9% 0.0 mm
05:54 12.9 °C 7.8 °C 1019.1 hPa SSE 5 km/h 11.1 km/h 71% 0.0 mm
05:59 12.8 °C 7.6 °C 1018.9 hPa ESE 6.6 km/h 11.9 km/h 71% 0.0 mm
06:04 12.5 °C 7.5 °C 1018.9 hPa SSE 6.9 km/h 11.3 km/h 71.5% 0.0 mm
06:09 12.3 °C 7.4 °C 1019.0 hPa Sur 5.3 km/h 8 km/h 72% 0.0 mm
06:14 12.2 °C 7.5 °C 1019.0 hPa Sur 5 km/h 9.3 km/h 72.9% 0.0 mm
06:19 12.2 °C 7.4 °C 1019.0 hPa Sur 5.6 km/h 9.7 km/h 72.4% 0.0 mm
06:24 12.2 °C 7.3 °C 1019.2 hPa SSO 5.8 km/h 9.7 km/h 71.8% 0.0 mm
06:29 12.3 °C 7.2 °C 1019.2 hPa SSO 6.3 km/h 9.7 km/h 71% 0.0 mm
06:34 12.4 °C 7.2 °C 1019.2 hPa Sur 6.5 km/h 8 km/h 70.5% 0.0 mm
06:39 12.5 °C 7.1 °C 1019.2 hPa SSE 5.3 km/h 11.1 km/h 70% 0.0 mm
06:44 12.4 °C 7 °C 1019.1 hPa SSE 5 km/h 11.9 km/h 69.5% 0.0 mm
06:49 12.3 °C 6.9 °C 1019.1 hPa Sur 7.1 km/h 11.9 km/h 70% 0.0 mm
06:54 12.3 °C 6.7 °C 1019.2 hPa SSO 7.6 km/h 13 km/h 68.7% 0.0 mm
06:59 12.5 °C 6.7 °C 1019.2 hPa SSE 7 km/h 12.9 km/h 67.5% 0.0 mm
07:04 12.6 °C 6.6 °C 1019.2 hPa SE 6.9 km/h 9.5 km/h 67% 0.0 mm
07:09 12.3 °C 6.7 °C 1019.3 hPa SE 6 km/h 9.7 km/h 68.3% 0.0 mm
07:14 12 °C 6.7 °C 1019.3 hPa SE 5.8 km/h 10 km/h 69.8% 0.0 mm
07:19 11.8 °C 6.7 °C 1019.3 hPa SE 6.7 km/h 9.7 km/h 70.9% 0.0 mm
07:24 11.8 °C 6.7 °C 1019.4 hPa SSE 6.9 km/h 9.7 km/h 71% 0.0 mm
07:29 11.8 °C 6.7 °C 1019.4 hPa SE 6 km/h 14.8 km/h 71% 0.0 mm
07:34 11.6 °C 6.5 °C 1019.4 hPa SSE 5.8 km/h 14.5 km/h 71% 0.0 mm
07:39 11.4 °C 6.3 °C 1019.5 hPa SSE 8.2 km/h 13 km/h 71% 0.0 mm
07:44 11.3 °C 6.2 °C 1019.5 hPa SSE 8.7 km/h 13 km/h 71% 0.0 mm
07:49 11.3 °C 6.2 °C 1019.5 hPa SSE 8.4 km/h 12.9 km/h 71% 0.0 mm
07:54 11.3 °C 6.2 °C 1019.7 hPa Sur 8.4 km/h 10 km/h 71% 0.0 mm
07:59 11.3 °C 6.2 °C 1019.7 hPa SSE 6.2 km/h 9.7 km/h 71% 0.0 mm
08:04 11.4 °C 6.2 °C 1019.7 hPa SSE 5.8 km/h 9.3 km/h 70.5% 0.0 mm
08:09 11.6 °C 6.3 °C 1019.8 hPa Sur 5.8 km/h 9.7 km/h 70% 0.0 mm
08:14 11.6 °C 6.2 °C 1019.8 hPa SSO 5.8 km/h 8.4 km/h 69.5% 0.0 mm
08:19 11.7 °C 6.2 °C 1019.8 hPa SSO 5.1 km/h 8.7 km/h 69% 0.0 mm
08:24 11.8 °C 6.2 °C 1020.0 hPa SO 5 km/h 9.3 km/h 68.4% 0.0 mm
08:29 12 °C 6.3 °C 1020.0 hPa SSO 5.6 km/h 11.1 km/h 67.9% 0.0 mm
08:34 12.2 °C 6.2 °C 1020.0 hPa SSO 5.8 km/h 11.3 km/h 67% 0.0 mm
08:39 12.5 °C 6.3 °C 1020.0 hPa Sur 7.2 km/h 11.9 km/h 65.7% 0.0 mm
08:44 12.8 °C 6.4 °C 1019.9 hPa SE 7.6 km/h 11.3 km/h 65% 0.0 mm
08:49 12.6 °C 6.3 °C 1019.9 hPa SE 6.6 km/h 9.5 km/h 65.4% 0.0 mm
08:54 12.3 °C 6.3 °C 1019.9 hPa SSE 6.5 km/h 9.7 km/h 66.8% 0.0 mm
08:59 11.9 °C 6.3 °C 1019.9 hPa Sur 5.9 km/h 10 km/h 68.5% 0.0 mm
09:04 11.8 °C 6.3 °C 1019.9 hPa OSO 5.8 km/h 9.7 km/h 69% 0.0 mm
09:09 11.9 °C 6.5 °C 1020.2 hPa OSO 4.9 km/h 8 km/h 69.2% 0.0 mm
09:14 12.2 °C 6.6 °C 1020.2 hPa OSO 4.7 km/h 8 km/h 69% 0.0 mm
09:19 12.4 °C 6.8 °C 1020.2 hPa SSO 4 km/h 8 km/h 68.6% 0.0 mm
09:24 12.8 °C 6.8 °C 1020.3 hPa Sur 3.9 km/h 7.6 km/h 67.2% 0.0 mm
09:29 13.2 °C 6.9 °C 1020.3 hPa SSE 4.5 km/h 9.3 km/h 65.4% 0.0 mm
09:34 13.5 °C 6.9 °C 1020.3 hPa SSE 4.7 km/h 10 km/h 64.5% 0.0 mm
09:39 13.7 °C 6.8 °C 1020.4 hPa SSE 6.1 km/h 11.1 km/h 63.4% 0.0 mm
09:44 13.7 °C 6.7 °C 1020.4 hPa SSE 6.5 km/h 13 km/h 62.7% 0.0 mm
09:49 13.7 °C 6.6 °C 1020.4 hPa SE 8.1 km/h 16.1 km/h 62.3% 0.0 mm
09:54 13.6 °C 6.6 °C 1020.4 hPa SSE 8.4 km/h 16.7 km/h 62.8% 0.0 mm
09:59 13.8 °C 6.7 °C 1020.2 hPa Sur 10 km/h 16.1 km/h 62.2% 0.0 mm
10:04 14.1 °C 6.8 °C 1020.2 hPa Sur 10.3 km/h 14.5 km/h 61.8% 0.0 mm
10:09 14.3 °C 6.8 °C 1020.2 hPa SSO 8.7 km/h 14.5 km/h 60.6% 0.0 mm
10:14 14.6 °C 6.6 °C 1020.2 hPa Sur 8.4 km/h 11.3 km/h 58.7% 0.0 mm
10:19 14.9 °C 6.6 °C 1020.2 hPa Sur 7.7 km/h 13 km/h 57.4% 0.0 mm
10:24 15.2 °C 6.7 °C 1020.2 hPa Sur 7.6 km/h 12.9 km/h 56.8% 0.0 mm
10:29 15.4 °C 6.6 °C 1020.2 hPa Sur 8.2 km/h 11.3 km/h 55.6% 0.0 mm
10:34 15.7 °C 6.5 °C 1020.2 hPa Sur 8.4 km/h 11.3 km/h 54.3% 0.0 mm
10:39 16 °C 6.6 °C 1020.2 hPa Sur 7.1 km/h 11.3 km/h 53.9% 0.0 mm
10:44 16.2 °C 6.6 °C 1020.2 hPa SSO 6.9 km/h 9.7 km/h 52.7% 0.0 mm
10:49 16.5 °C 6.6 °C 1020.2 hPa SSO 6 km/h 9.3 km/h 52% 0.0 mm
10:54 16.7 °C 6.7 °C 1020.2 hPa Sur 5.8 km/h 11.1 km/h 51.7% 0.0 mm
10:59 16.9 °C 6.5 °C 1020.2 hPa OSO 5.1 km/h 11.3 km/h 50.2% 0.0 mm
11:04 17.1 °C 6.6 °C 1020.2 hPa OSO 5 km/h 9.7 km/h 50% 0.0 mm
11:09 17.3 °C 6.6 °C 1020.4 hPa SO 5 km/h 11.1 km/h 49.6% 0.0 mm
11:14 17.5 °C 6.3 °C 1020.4 hPa SO 5 km/h 10 km/h 47.9% 0.0 mm
11:19 17.8 °C 6.4 °C 1020.4 hPa SSO 6.2 km/h 10 km/h 47% 0.0 mm
11:24 18.1 °C 6.3 °C 1020.4 hPa SSO 6.5 km/h 11.1 km/h 46% 0.0 mm
11:29 18.3 °C 6.2 °C 1020.3 hPa SSO 5.2 km/h 11.3 km/h 45.2% 0.0 mm
11:34 18.4 °C 6.2 °C 1020.3 hPa SSO 5 km/h 9.7 km/h 44.6% 0.0 mm
11:39 18.8 °C 6.2 °C 1020.3 hPa SSO 6.7 km/h 13 km/h 43.9% 0.0 mm
11:44 19.1 °C 6.2 °C 1020.2 hPa SSO 6.9 km/h 13 km/h 43% 0.0 mm
11:49 19.3 °C 6.3 °C 1020.2 hPa SSO 7.5 km/h 11.9 km/h 42.8% 0.0 mm
11:54 19.5 °C 6.2 °C 1020.2 hPa SSO 7.6 km/h 11.3 km/h 42% 0.0 mm
11:59 19.8 °C 6.3 °C 1020.1 hPa Sur 7 km/h 11.3 km/h 41.4% 0.0 mm
12:04 20.1 °C 6.4 °C 1020.1 hPa SSO 6.9 km/h 9.7 km/h 41% 0.0 mm
12:09 20.3 °C 6.2 °C 1020.1 hPa OSO 6.5 km/h 9.7 km/h 39.7% 0.0 mm
12:14 20.6 °C 6.1 °C 1020.1 hPa Oeste 6.5 km/h 13 km/h 39% 0.0 mm
12:19 20.7 °C 6.4 °C 1020.1 hPa SO 5.9 km/h 12.9 km/h 39.5% 0.0 mm
12:24 20.8 °C 6.4 °C 1020.1 hPa Oeste 5.8 km/h 9.7 km/h 39% 0.0 mm
12:29 21 °C 6.5 °C 1020.0 hPa SSO 5.1 km/h 9.7 km/h 39% 0.0 mm
12:34 21.2 °C 6.6 °C 1020.0 hPa SSO 5 km/h 10 km/h 38.8% 0.0 mm
12:39 21.4 °C 6.4 °C 1020.0 hPa SO 6.2 km/h 11.1 km/h 37.7% 0.0 mm
12:44 21.7 °C 6.3 °C 1019.5 hPa SSO 6.5 km/h 11.3 km/h 37% 0.0 mm
12:49 21.8 °C 6.3 °C 1019.5 hPa SSO 7.4 km/h 13 km/h 36.4% 0.0 mm
12:54 21.9 °C 6.2 °C 1019.5 hPa SSO 7.6 km/h 14.8 km/h 36% 0.0 mm
12:59 21.9 °C 5.9 °C 1019.2 hPa SSO 8.5 km/h 14.8 km/h 35.4% 0.0 mm
13:04 22 °C 6.2 °C 1019.2 hPa Sur 8.7 km/h 14.8 km/h 35.8% 0.0 mm
13:09 22.3 °C 5.9 °C 1019.2 hPa SSO 8.7 km/h 14.8 km/h 34.7% 0.0 mm
13:14 22.3 °C 5.7 °C 1018.9 hPa SO 8.7 km/h 13 km/h 34% 0.0 mm
13:19 22.5 °C 5.7 °C 1018.9 hPa Sur 7.7 km/h 11.3 km/h 33.5% 0.0 mm
13:24 22.8 °C 5.3 °C 1018.9 hPa SO 7.6 km/h 13 km/h 32% 0.0 mm
13:29 23 °C 5.4 °C 1018.4 hPa SSO 6 km/h 12.9 km/h 31.9% 0.0 mm
13:34 23.2 °C 5.4 °C 1018.4 hPa SSO 5.8 km/h 11.3 km/h 31.7% 0.0 mm
13:39 23.5 °C 5.7 °C 1018.4 hPa SO 6.7 km/h 11.3 km/h 31.7% 0.0 mm
13:44 23.8 °C 5.7 °C 1018.0 hPa SO 6.9 km/h 9.7 km/h 31% 0.0 mm
13:49 24 °C 5.8 °C 1018.0 hPa SO 5.3 km/h 9.7 km/h 31% 0.0 mm
13:54 24.3 °C 5.6 °C 1018.0 hPa SO 5 km/h 10 km/h 30.1% 0.0 mm
13:59 24.5 °C 5.4 °C 1017.7 hPa OSO 5 km/h 15.6 km/h 29.1% 0.0 mm
14:04 24.6 °C 5.4 °C 1017.7 hPa Oeste 5 km/h 16.7 km/h 28.9% 0.0 mm
14:09 24.6 °C 5.5 °C 1017.7 hPa OSO 8.2 km/h 16.1 km/h 29.2% 0.0 mm
14:14 24.7 °C 5.4 °C 1017.4 hPa Oeste 8.7 km/h 13.7 km/h 28.8% 0.0 mm
14:19 24.8 °C 5 °C 1017.4 hPa OSO 8.4 km/h 14.5 km/h 27.9% 0.0 mm
14:24 24.9 °C 4.9 °C 1017.4 hPa Oeste 8.4 km/h 12.9 km/h 27.5% 0.0 mm
14:29 25.2 °C 4.8 °C 1017.2 hPa OSO 7.7 km/h 9.7 km/h 27% 0.0 mm
14:34 25.4 °C 4.7 °C 1017.2 hPa SO 7.6 km/h 11.1 km/h 26.4% 0.0 mm
14:39 25.7 °C 4.8 °C 1017.2 hPa SSO 5.4 km/h 16.7 km/h 26.1% 0.0 mm
14:44 25.8 °C 4.8 °C 1016.9 hPa SO 5 km/h 16.1 km/h 26% 0.0 mm
14:49 25.8 °C 4.9 °C 1016.9 hPa OSO 7.1 km/h 7.4 km/h 26% 0.0 mm
14:54 26 °C 5 °C 1016.9 hPa Oeste 7.6 km/h 8 km/h 25.9% 0.0 mm
14:59 26.3 °C 4.9 °C 1016.6 hPa Sur 3.8 km/h 9.5 km/h 25.5% 0.0 mm
15:04 26.4 °C 4.8 °C 1016.6 hPa SSE 3.2 km/h 9.7 km/h 25% 0.0 mm
15:09 26.6 °C 4.7 °C 1016.6 hPa Sur 4.7 km/h 9.5 km/h 24.6% 0.0 mm
15:14 26.7 °C 4.4 °C 1016.2 hPa Sur 5 km/h 9.7 km/h 24% 0.0 mm
15:19 26.8 °C 4.5 °C 1016.2 hPa SSO 4.7 km/h 8 km/h 23.9% 0.0 mm
15:24 26.8 °C 4.6 °C 1016.2 hPa SE 4.7 km/h 8 km/h 24% 0.0 mm
15:29 26.9 °C 4.6 °C 1016.1 hPa Sur 3.5 km/h 8.4 km/h 24% 0.0 mm
15:34 27 °C 4.7 °C 1016.1 hPa SO 3.2 km/h 7.4 km/h 24% 0.0 mm
15:39 27 °C 4.7 °C 1016.2 hPa SO 4.4 km/h 8 km/h 24% 0.0 mm
15:44 27.1 °C 4.8 °C 1016.2 hPa SO 4.7 km/h 7.6 km/h 24% 0.0 mm
15:49 27.2 °C 4.9 °C 1016.2 hPa SSO 3.5 km/h 9.3 km/h 24% 0.0 mm
15:54 27.2 °C 4.9 °C 1016.2 hPa SO 3.2 km/h 9.7 km/h 24% 0.0 mm
15:59 27.4 °C 4.8 °C 1015.9 hPa OSO 3.2 km/h 8.7 km/h 23.7% 0.0 mm
16:04 27.4 °C 4.9 °C 1015.9 hPa SSO 3.2 km/h 9.7 km/h 23.8% 0.0 mm
16:09 27.5 °C 5 °C 1015.9 hPa SSO 3.8 km/h 9.7 km/h 23.8% 0.0 mm
16:14 27.6 °C 4.9 °C 1015.8 hPa OSO 3.9 km/h 8 km/h 23.4% 0.0 mm
16:19 27.6 °C 4.7 °C 1015.8 hPa Oeste 4.5 km/h 8 km/h 23.2% 0.0 mm
16:24 27.6 °C 4.6 °C 1015.8 hPa OSO 4.7 km/h 8 km/h 23% 0.0 mm
16:29 27.7 °C 4.7 °C 1015.7 hPa Oeste 3.4 km/h 6.4 km/h 23% 0.0 mm
16:34 27.8 °C 4.8 °C 1015.7 hPa ONO 3.2 km/h 4.8 km/h 23% 0.0 mm
16:39 28 °C 4.9 °C 1015.7 hPa Oeste 2.5 km/h 7.4 km/h 23% 0.0 mm
16:44 28.2 °C 5.1 °C 1015.6 hPa Oeste 2.2 km/h 8 km/h 23% 0.0 mm
16:49 28.2 °C 5.1 °C 1015.6 hPa OSO 3.1 km/h 6.4 km/h 23% 0.0 mm
16:54 28.3 °C 4.6 °C 1015.6 hPa Oeste 3.2 km/h 7.6 km/h 22.2% 0.0 mm
16:59 28.2 °C 4.9 °C 1015.5 hPa SO 3.8 km/h 8.4 km/h 22.7% 0.0 mm
17:04 28.1 °C 5 °C 1015.5 hPa SO 3.9 km/h 8.4 km/h 23% 0.0 mm
17:09 28.2 °C 5 °C 1015.5 hPa SSO 4.5 km/h 8 km/h 22.9% 0.0 mm
17:14 28.1 °C 4.6 °C 1015.4 hPa SSO 4.7 km/h 9.3 km/h 22.3% 0.0 mm
17:19 28.1 °C 4.9 °C 1015.4 hPa SO 4.7 km/h 9.7 km/h 22.8% 0.0 mm
17:24 28.1 °C 5 °C 1015.4 hPa SO 4.7 km/h 6.4 km/h 23% 0.0 mm
17:29 28.1 °C 5 °C 1015.3 hPa SSE 3.4 km/h 7.6 km/h 23% 0.0 mm
17:34 28 °C 5 °C 1015.3 hPa SSE 3.2 km/h 8 km/h 23.2% 0.0 mm
17:39 27.8 °C 5.3 °C 1015.4 hPa SE 4.5 km/h 8 km/h 23.8% 0.0 mm
17:44 27.7 °C 5.3 °C 1015.4 hPa SE 4.7 km/h 8 km/h 24% 0.0 mm
17:49 27.5 °C 5.7 °C 1015.4 hPa SE 4.7 km/h 8 km/h 25% 0.0 mm
17:54 27.3 °C 5.7 °C 1015.4 hPa SE 4.7 km/h 8 km/h 25.1% 0.0 mm
17:59 27.2 °C 6 °C 1015.3 hPa ESE 4 km/h 9.3 km/h 26% 0.0 mm
18:04 26.9 °C 6.1 °C 1015.3 hPa SE 3.9 km/h 9.7 km/h 26.7% 0.0 mm
18:09 26.5 °C 6.2 °C 1015.5 hPa SSE 5.5 km/h 11.1 km/h 27.4% 0.0 mm
18:14 26.2 °C 5.7 °C 1015.5 hPa SSO 5.8 km/h 14.8 km/h 27% 0.0 mm
18:19 25.7 °C 5.3 °C 1015.5 hPa SO 8 km/h 14.5 km/h 27% 0.0 mm
18:24 25.2 °C 5.1 °C 1015.5 hPa SSO 8.4 km/h 13 km/h 27.3% 0.0 mm
18:29 24.8 °C 5.2 °C 1015.5 hPa SSO 8.6 km/h 14.8 km/h 28.4% 0.0 mm
18:34 24.3 °C 5.3 °C 1015.5 hPa SO 8.7 km/h 14.5 km/h 29.3% 0.0 mm
18:39 23.9 °C 5.4 °C 1015.7 hPa SSO 8.7 km/h 14.8 km/h 30.4% 0.0 mm
18:44 23.4 °C 5.4 °C 1015.7 hPa SO 8.7 km/h 17.2 km/h 31.3% 0.0 mm
18:49 23 °C 5.4 °C 1015.7 hPa SSO 9.4 km/h 17.7 km/h 32% 0.0 mm
18:54 22.6 °C 5.5 °C 1015.7 hPa SSO 9.5 km/h 16.7 km/h 33% 0.0 mm
18:59 22.3 °C 5.6 °C 1015.7 hPa SSO 9.9 km/h 15.6 km/h 33.8% 0.0 mm
19:04 22.1 °C 5.6 °C 1015.7 hPa SO 10 km/h 16.1 km/h 34.4% 0.0 mm
19:09 21.8 °C 5.7 °C 1015.9 hPa SO 10 km/h 16.1 km/h 35% 0.0 mm
19:14 21.6 °C 5.8 °C 1015.9 hPa SSO 10 km/h 16.1 km/h 35.9% 0.0 mm
19:19 21.4 °C 5.7 °C 1015.9 hPa SSO 9.6 km/h 14.5 km/h 36% 0.0 mm
19:24 21.3 °C 5.9 °C 1016.0 hPa SSO 9.5 km/h 18.5 km/h 36.8% 0.0 mm
19:29 21.2 °C 5.9 °C 1016.0 hPa SSO 9.9 km/h 19.8 km/h 37% 0.0 mm
19:34 21 °C 6 °C 1016.0 hPa SSO 10 km/h 20.9 km/h 37.8% 0.0 mm
19:39 20.8 °C 6 °C 1016.0 hPa SSO 11.6 km/h 20.9 km/h 38% 0.0 mm
19:44 20.8 °C 5.9 °C 1016.0 hPa Oeste 11.9 km/h 14.5 km/h 38% 0.0 mm
19:49 20.7 °C 6.2 °C 1016.0 hPa SSO 5.9 km/h 11.9 km/h 39% 0.0 mm
19:54 20.6 °C 6.2 °C 1016.3 hPa SSO 5 km/h 14.8 km/h 39.1% 0.0 mm
19:59 20.4 °C 6.4 °C 1016.3 hPa SO 6.6 km/h 16.7 km/h 40.1% 0.0 mm
20:04 20.3 °C 6.6 °C 1016.3 hPa SSO 6.9 km/h 16.1 km/h 41.1% 0.0 mm
20:09 20.1 °C 6.8 °C 1016.3 hPa SSO 9.1 km/h 16.1 km/h 42% 0.0 mm
20:14 19.9 °C 7 °C 1016.3 hPa SSO 9.5 km/h 14.5 km/h 42.9% 0.0 mm
20:19 19.9 °C 7 °C 1016.3 hPa SSE 8.6 km/h 14.5 km/h 43.2% 0.0 mm
20:24 19.8 °C 7.2 °C 1016.4 hPa SSE 8.4 km/h 14.8 km/h 44% 0.0 mm
20:29 19.7 °C 7.4 °C 1016.4 hPa SSE 8.4 km/h 18.5 km/h 45% 0.0 mm
20:34 19.6 °C 7.4 °C 1016.4 hPa Sur 8.4 km/h 19.3 km/h 45.3% 0.0 mm
20:39 19.3 °C 7.6 °C 1016.4 hPa Sur 10.6 km/h 16.7 km/h 46.3% 0.0 mm
20:44 19.2 °C 7.7 °C 1016.3 hPa Sur 11.1 km/h 16.7 km/h 47.4% 0.0 mm
20:49 18.9 °C 7.8 °C 1016.3 hPa SSO 9.1 km/h 16.1 km/h 48.4% 0.0 mm
20:54 18.8 °C 7.9 °C 1016.4 hPa SSO 8.7 km/h 13 km/h 49.3% 0.0 mm
20:59 18.7 °C 8.1 °C 1016.4 hPa SSO 7.7 km/h 12.9 km/h 50.3% 0.0 mm
21:04 18.5 °C 8.3 °C 1016.4 hPa SSO 7.6 km/h 9.7 km/h 51.2% 0.0 mm
21:09 18.4 °C 8.4 °C 1016.4 hPa Sur 6 km/h 11.1 km/h 52% 0.0 mm
21:14 18.3 °C 8.4 °C 1016.4 hPa Sur 5.8 km/h 11.3 km/h 52.5% 0.0 mm
21:19 18.2 °C 8.7 °C 1016.4 hPa Sur 6.3 km/h 13.7 km/h 53.9% 0.0 mm
21:24 18.1 °C 8.9 °C 1016.5 hPa Sur 6.5 km/h 14.5 km/h 55% 0.0 mm
21:29 18 °C 9.1 °C 1016.5 hPa SSO 8.1 km/h 11.3 km/h 56% 0.0 mm
21:34 17.9 °C 9 °C 1016.5 hPa SSO 8.4 km/h 11.3 km/h 56% 0.0 mm
21:39 17.8 °C 9.1 °C 1016.5 hPa SSO 7.7 km/h 11.3 km/h 56.7% 0.0 mm
21:44 17.8 °C 9.2 °C 1016.5 hPa SSO 7.6 km/h 11.3 km/h 57% 0.0 mm
21:49 17.7 °C 9.1 °C 1016.5 hPa SO 6.6 km/h 11.3 km/h 57% 0.0 mm
21:54 17.7 °C 9.2 °C 1016.5 hPa SSO 6.5 km/h 9.7 km/h 57.6% 0.0 mm
21:59 17.6 °C 9.2 °C 1016.4 hPa Sur 5.2 km/h 9.7 km/h 58% 0.0 mm
22:04 17.6 °C 9.3 °C 1016.4 hPa SSE 5 km/h 10.3 km/h 58.3% 0.0 mm
22:09 17.4 °C 9.4 °C 1016.4 hPa SSE 5 km/h 11.3 km/h 59.4% 0.0 mm
22:14 17.3 °C 9.5 °C 1016.4 hPa Sur 5 km/h 11.1 km/h 60.5% 0.0 mm
22:19 17.1 °C 9.6 °C 1016.4 hPa SSO 6.6 km/h 11.3 km/h 61.3% 0.0 mm
22:24 16.9 °C 9.6 °C 1016.5 hPa Sur 6.9 km/h 11.9 km/h 62% 0.0 mm
22:29 16.8 °C 9.6 °C 1016.5 hPa SSE 6.9 km/h 13.7 km/h 62.4% 0.0 mm
22:34 16.7 °C 9.6 °C 1016.5 hPa SSE 6.9 km/h 17.2 km/h 63% 0.0 mm
22:39 16.5 °C 9.4 °C 1016.5 hPa Sur 9.6 km/h 17.7 km/h 63% 0.0 mm
22:44 16.4 °C 9.3 °C 1016.5 hPa SSE 10 km/h 16.7 km/h 63% 0.0 mm
22:49 16.3 °C 9.2 °C 1016.5 hPa SE 10.2 km/h 14.8 km/h 63% 0.0 mm
22:54 16.2 °C 9.3 °C 1016.5 hPa SSE 10.3 km/h 16.7 km/h 63.8% 0.0 mm
22:59 16 °C 9.3 °C 1016.4 hPa SE 9.6 km/h 16.1 km/h 64.6% 0.0 mm
23:04 15.8 °C 9.1 °C 1016.4 hPa SE 9.5 km/h 13.7 km/h 64.4% 0.0 mm
23:09 15.7 °C 9 °C 1016.5 hPa SSE 8.6 km/h 14.8 km/h 64.2% 0.0 mm
23:14 15.8 °C 9 °C 1016.5 hPa Sur 8.4 km/h 14.8 km/h 63.9% 0.0 mm
23:19 16.1 °C 8.7 °C 1016.5 hPa Sur 9.3 km/h 13 km/h 61.7% 0.0 mm
23:24 16.3 °C 8.5 °C 1016.5 hPa SSE 9.5 km/h 12.9 km/h 59.6% 0.0 mm
23:29 16.6 °C 8.3 °C 1016.5 hPa SSE 8.6 km/h 13 km/h 58.1% 0.0 mm
23:34 16.7 °C 8.1 °C 1016.5 hPa SSE 8.4 km/h 11.9 km/h 57% 0.0 mm
23:39 16.8 °C 7.9 °C 1016.5 hPa SE 8.6 km/h 11.3 km/h 56.1% 0.0 mm
23:44 16.8 °C 7.9 °C 1016.5 hPa SSE 8.7 km/h 11.1 km/h 55.9% 0.0 mm
23:49 16.8 °C 7.7 °C 1016.5 hPa Sur 7.2 km/h 11.3 km/h 54.9% 0.0 mm
23:54 17.2 °C 7.4 °C 1016.5 hPa SSO 6.9 km/h 13.7 km/h 52.7% 0.0 mm
23:59 17.9 °C 7 °C 1016.5 hPa SO 8.2 km/h 14.5 km/h 49% 0.0 mm
Murcia-Puente Tocinos, Espa?a
Compliments of Weather Underground - 3 mb

La estación de MeteoMurcia.com, publica sus datos en los siguientes proyectos:

Weather Underground PWS IMURCIAP2 Meteoclimatic www.awekas.at

W3Counter
Web Analytics